Campiña-Keine besondere Aufmerksamkeit notwendig.   -   Es gibt keine Warnungen.

Nearby METAR Reports

 

LEZL - Sevilla, Spain
Distance from station: ONO 8km
aktuell: 29/01/2020 11:30
stark bewölkt
stark bewölkt
 Wind von NNO
Wind: NNO 9 km/h
Temperatur: 12°C
Taupunkt: 12°C
Luftfeuchte: 100%
Luftdruck: 1027 hPa
Clouds: stark bewölkt
Visibility: 7 km
Cloud details: stark bewölkt 152 m
2020/01/29 10:30 LEZL 291030Z 03005KT 7000 BKN005 12/12 Q1027 NOSIG
LEMO - Morón, Spain
Distance from station: SO 43km
aktuell: 29/01/2020 12:00
klar
klar
 Wind von NO
Wind: NO 13 km/h
Temperatur: 16°C
Taupunkt: 11°C
Luftfeuchte: 72%
Luftdruck: 1026 hPa
Zusammenfassung: klar
Visibility: greater than 10 km
2020/01/29 11:00 LEMO 291100Z 05007KT CAVOK 16/11 Q1026 NOSIG
LEJR - Jeréz, Spain
Distance from station: S 71km
aktuell: 29/01/2020 12:00
Patches of fog, Mist, Few clouds
Patches of fog, Mist, Few clouds
 Wind von NW
Wind: NW 9 km/h
Temperatur: 14°C
Taupunkt: 12°C
Luftfeuchte: 88%
Luftdruck: 1027 hPa
Zusammenfassung: Patches of fog, Mist
Clouds: Few Clouds
Visibility: 5 km
Cloud details: Few Clouds 1067 m
2020/01/29 11:00 LEJR 291100Z 31005KT 280V350 5000 BCFG BR FEW035 14/12 Q1027
 
LERT - Rota, Spain
Distance from station: SSW 89km
aktuell: 29/01/2020 11:00
teilweise bewölkt
teilweise bewölkt
 Wind von NNO
Wind: NNO 7 km/h
Temperatur: 13°C
Taupunkt: 12°C
Luftfeuchte: 94%
Luftdruck: 1026 hPa
Clouds: teilweise bewölkt
Visibility: 6 km
2020/01/29 10:00 LERT 291000Z 03004KT 6000 NSC 13/12 Q1026 NOSIG
LEMG - Málaga, Spain
Distance from station: OSO 157km
aktuell: 29/01/2020 11:30
klar
klar
 Wind von W
Wind: W 17 km/h
Temperatur: 18°C
Taupunkt: 10°C
Luftfeuchte: 60%
Luftdruck: 1025 hPa
Zusammenfassung: klar
Visibility: greater than 10 km
2020/01/29 10:30 LEMG 291030Z 28009KT CAVOK 18/10 Q1025 NOSIG
LEBA - Córdoba, Spain
Distance from station: ONO 115km
aktuell: 29/01/2020 11:30
teilweise bewölkt
teilweise bewölkt
 Wind von ONO
Wind: ONO 7 km/h
Temperatur: 12°C
Taupunkt: 10°C
Luftfeuchte: 88%
Luftdruck: 1027 hPa
Clouds: teilweise bewölkt
Visibility: 7 km
2020/01/29 10:30 LEBA 291030Z 07004KT 020V110 7000 NSC 12/10 Q1027
 
LEGR - Granada, Spain
Distance from station: O 198km
aktuell: 29/01/2020 11:48
Mist, geschlossene Wolkendecke
Mist, geschlossene Wolkendecke
 Wind von calm
Wind: Windstill
Temperatur: 6°C
Taupunkt: 6°C
Luftfeuchte: 100%
Luftdruck: 1027 hPa
Zusammenfassung: Mist
Clouds: geschlossene Wolkendecke
Visibility: 1 km
Cloud details: geschlossene Wolkendecke 30 m
2020/01/29 10:48 LEGR 291048Z 00000KT 1000 R09/0900U BR VV001 06/06 Q1027
LEAM - Almería, Spain
Distance from station: O 326km
aktuell: 29/01/2020 11:30
Mist, Nearby fog, stark bewölkt
Mist, Nearby fog, stark bewölkt
 Wind von varies
Wind: varies 4 km/h
Temperatur: 12°C
Taupunkt: 11°C
Luftfeuchte: 94%
Luftdruck: 1025 hPa
Zusammenfassung: Mist, Nearby fog
Clouds: stark bewölkt
Visibility: 4 km
Cloud details: stark bewölkt 61 m
2020/01/29 10:30 LEAM 291030Z VRB02KT 4000 BR VCFG BKN002 12/11 Q1025
LEMD - Madrid/Barajas, Spain
Distance from station: NNO 402km
aktuell: 29/01/2020 11:30
stark bewölkt
stark bewölkt
 Wind von SW
Wind: SW 13 km/h
Temperatur: 12°C
Taupunkt: 9°C
Luftfeuchte: 82%
Luftdruck: 1025 hPa
Clouds: stark bewölkt
Visibility: 10 km
Cloud details: teilweise bewölkt 427 m
stark bewölkt 1372 m
2020/01/29 10:30 LEMD 291030Z 22007KT 170V240 9999 SCT014 BKN045 12/09 Q1025 NOSIG
 
LEVD - Valladolid, Spain
Distance from station: N 492km
aktuell: 29/01/2020 11:30
sehr leichter Niederschlag, teilweise bewölkt
sehr leichter Niederschlag, teilweise bewölkt
 Wind von SW
Wind: SW 17 km/h
Temperatur: 9°C
Wind Chill: 7°C
Taupunkt: 9°C
Luftfeuchte: 100%
Luftdruck: 1024 hPa
Zusammenfassung: sehr leichter Niederschlag
Clouds: teilweise bewölkt
Visibility: 10 km
Cloud details: teilweise bewölkt 183 m
teilweise bewölkt 1219 m
2020/01/29 10:30 LEVD 291030Z 22009KT 9999 -RA SCT006 SCT040 09/09 Q1024
LEBL - Barcelona, Spain
Distance from station: NO 816km
aktuell: 29/01/2020 11:30
stark bewölkt
stark bewölkt
 Wind von NNW
Wind: NNW 6 km/h
Temperatur: 12°C
Taupunkt: 7°C
Luftfeuchte: 72%
Luftdruck: 1022 hPa
Clouds: stark bewölkt
Visibility: 10 km
Cloud details: stark bewölkt 1372 m
2020/01/29 10:30 LEBL 291030Z 33003KT 280V010 9999 BKN045 12/07 Q1022 NOSIG
LEVC - Valencia, Spain
Distance from station: ONO 535km
aktuell: 29/01/2020 11:30
Few Clouds
Few Clouds
 Wind von W
Wind: W 22 km/h
Temperatur: 19°C
Taupunkt: 11°C
Luftfeuchte: 60%
Luftdruck: 1023 hPa
Clouds: Few Clouds
Visibility: 10 km
Cloud details: Few Clouds 914 m
2020/01/29 10:30 LEVC 291030Z 27012KT 9999 FEW030 19/11 Q1023 NOSIG